Time;durP1;ratioP1;P1;durP2;ratioP2;P2;SDS_P1;SDS_P2;PMS_P1;PMS_P2;Temp;Humidity;BMP_temperature;BMP_pressure;BME280_temperature;BME280_humidity;BME280_pressure;Samples;Min_cycle;Max_cycle;Signal;HPM_P1;HPM_P2
2023/04/23 00:00:07;;;;;;;44.60;32.63;;;;;;;;;;5011681;28;19968;-55
2023/04/23 00:02:33;;;;;;;43.47;31.05;;;;;;;;;;5013092;28;20061;-56
2023/04/23 00:05:03;;;;;;;45.75;33.55;;;;;;;;;;5013853;28;20029;-52
2023/04/23 00:07:31;;;;;;;47.40;33.55;;;;;;;;;;5012806;28;20018;-48
2023/04/23 00:09:57;;;;;;;44.93;34.00;;;;;;;;;;5012503;28;20113;-51
2023/04/23 00:12:24;;;;;;;44.17;31.63;;;;;;;;;;5011987;28;20080;-48
2023/04/23 00:14:50;;;;;;;46.60;34.50;;;;;;;;;;5015662;28;20391;-49
2023/04/23 00:17:16;;;;;;;48.63;33.75;;;;;;;;;;5015993;28;20033;-48
2023/04/23 00:19:42;;;;;;;46.78;33.78;;;;;;;;;;5015789;28;20044;-51
2023/04/23 00:22:08;;;;;;;49.00;34.60;;;;;;;;;;5015370;28;20402;-51
2023/04/23 00:24:37;;;;;;;45.90;35.10;;;;;;;;;;4997722;28;20500;-52
2023/04/23 00:27:03;;;;;;;46.35;34.35;;;;;;;;;;5015725;28;20104;-49
2023/04/23 00:29:30;;;;;;;47.42;34.92;;;;;;;;;;5016016;28;20108;-48
2023/04/23 00:31:56;;;;;;;47.15;34.42;;;;;;;;;;4998215;28;20022;-52
2023/04/23 00:34:22;;;;;;;45.00;33.47;;;;;;;;;;5015270;28;20046;-53
2023/04/23 00:36:48;;;;;;;44.85;33.28;;;;;;;;;;5015240;28;20033;-56
2023/04/23 00:39:14;;;;;;;45.85;34.40;;;;;;;;;;5009847;28;20042;-54
2023/04/23 00:41:40;;;;;;;45.90;33.45;;;;;;;;;;4997486;28;20057;-51
2023/04/23 00:44:07;;;;;;;47.22;33.78;;;;;;;;;;5014728;28;20061;-53
2023/04/23 00:46:34;;;;;;;47.88;33.72;;;;;;;;;;5014850;28;20022;-48
2023/04/23 00:49:01;;;;;;;47.53;34.78;;;;;;;;;;5014872;28;20045;-47
2023/04/23 00:51:27;;;;;;;53.60;35.17;;;;;;;;;;5014950;28;20533;-51
2023/04/23 00:53:54;;;;;;;51.50;37.15;;;;;;;;;;5014419;28;20108;-51
2023/04/23 00:56:20;;;;;;;47.83;35.63;;;;;;;;;;5014972;28;20479;-48
2023/04/23 00:58:46;;;;;;;47.72;35.60;;;;;;;;;;5014671;28;20369;-47
2023/04/23 01:01:12;;;;;;;46.60;34.42;;;;;;;;;;5014739;28;20114;-50
2023/04/23 01:03:41;;;;;;;49.63;35.65;;;;;;;;;;5013804;28;20062;-49
2023/04/23 01:06:07;;;;;;;50.80;35.60;;;;;;;;;;4997086;28;20026;-49
2023/04/23 01:08:33;;;;;;;55.25;37.53;;;;;;;;;;5014789;28;20707;-48
2023/04/23 01:11:00;;;;;;;51.83;36.75;;;;;;;;;;5014556;28;20105;-53
2023/04/23 01:13:28;;;;;;;53.17;36.40;;;;;;;;;;5014406;28;20028;-51
2023/04/23 01:15:54;;;;;;;56.28;37.45;;;;;;;;;;5014690;28;20021;-51
2023/04/23 01:18:20;;;;;;;53.60;37.72;;;;;;;;;;4996905;28;20029;-51
2023/04/23 01:20:46;;;;;;;51.45;36.25;;;;;;;;;;5014412;28;20037;-48
2023/04/23 01:23:12;;;;;;;60.25;38.70;;;;;;;;;;4996349;28;20084;-47
2023/04/23 01:25:41;;;;;;;55.88;38.25;;;;;;;;;;5014237;28;20030;-53
2023/04/23 01:28:07;;;;;;;58.22;38.78;;;;;;;;;;5014320;28;20113;-52
2023/04/23 01:30:33;;;;;;;57.03;38.63;;;;;;;;;;5014231;28;20029;-49
2023/04/23 01:33:00;;;;;;;56.40;38.60;;;;;;;;;;5014125;28;20033;-51
2023/04/23 01:35:26;;;;;;;62.20;40.55;;;;;;;;;;5014277;28;20156;-52
2023/04/23 01:37:53;;;;;;;54.10;38.15;;;;;;;;;;5014189;28;20171;-50
2023/04/23 01:40:20;;;;;;;55.97;38.28;;;;;;;;;;5014152;28;20040;-51
2023/04/23 01:42:46;;;;;;;61.15;40.65;;;;;;;;;;5014119;28;20057;-53
2023/04/23 01:45:13;;;;;;;56.50;41.28;;;;;;;;;;5013835;28;20375;-55
2023/04/23 01:47:40;;;;;;;53.63;37.60;;;;;;;;;;5013972;28;20068;-53
2023/04/23 01:50:06;;;;;;;54.17;39.35;;;;;;;;;;5013933;28;20030;-49
2023/04/23 01:52:32;;;;;;;61.55;41.60;;;;;;;;;;5013816;28;20029;-51
2023/04/23 01:55:00;;;;;;;63.45;41.83;;;;;;;;;;5013808;28;20029;-52
2023/04/23 01:57:26;;;;;;;60.33;41.75;;;;;;;;;;4996282;28;20033;-52
2023/04/23 01:59:53;;;;;;;54.97;39.78;;;;;;;;;;4996254;28;20057;-52
2023/04/23 02:02:20;;;;;;;59.70;40.92;;;;;;;;;;5013583;28;20036;-53
2023/04/23 02:04:47;;;;;;;62.50;41.13;;;;;;;;;;5013632;28;20383;-51
2023/04/23 02:07:13;;;;;;;61.33;40.78;;;;;;;;;;5013677;28;20022;-53
2023/04/23 02:09:39;;;;;;;58.17;38.95;;;;;;;;;;5013658;28;20025;-48
2023/04/23 02:12:05;;;;;;;53.10;37.63;;;;;;;;;;5013340;28;20034;-51
2023/04/23 02:14:31;;;;;;;59.55;39.88;;;;;;;;;;5013160;28;20093;-48
2023/04/23 02:16:57;;;;;;;59.15;42.83;;;;;;;;;;5013380;28;20533;-53
2023/04/23 02:19:23;;;;;;;56.50;39.58;;;;;;;;;;5013398;28;20097;-53
2023/04/23 02:21:49;;;;;;;57.90;40.30;;;;;;;;;;5013198;28;20029;-53
2023/04/23 02:24:15;;;;;;;60.92;40.50;;;;;;;;;;5013052;28;20475;-51
2023/04/23 02:26:41;;;;;;;60.55;39.80;;;;;;;;;;5013286;28;20022;-48
2023/04/23 02:29:07;;;;;;;61.83;41.72;;;;;;;;;;5013587;28;20026;-49
2023/04/23 02:31:33;;;;;;;61.30;42.13;;;;;;;;;;5013649;28;20029;-48
2023/04/23 02:34:00;;;;;;;63.20;43.10;;;;;;;;;;4995392;28;20034;-48
2023/04/23 02:36:27;;;;;;;57.60;40.88;;;;;;;;;;5012238;28;20528;-52
2023/04/23 02:38:53;;;;;;;58.00;39.58;;;;;;;;;;5013169;28;20478;-53
2023/04/23 02:41:20;;;;;;;64.90;41.42;;;;;;;;;;5012977;28;20041;-53
2023/04/23 02:43:46;;;;;;;62.40;40.38;;;;;;;;;;5012633;28;20517;-51
2023/04/23 02:46:12;;;;;;;59.58;40.47;;;;;;;;;;5013070;28;20105;-46
2023/04/23 02:48:39;;;;;;;61.72;41.95;;;;;;;;;;5012796;28;20542;-51
2023/04/23 02:51:05;;;;;;;57.83;39.88;;;;;;;;;;5012684;28;20079;-52
2023/04/23 02:53:32;;;;;;;64.03;41.88;;;;;;;;;;5012643;28;20397;-55
2023/04/23 02:55:58;;;;;;;67.05;42.20;;;;;;;;;;5012680;28;20456;-52
2023/04/23 02:58:24;;;;;;;58.00;40.10;;;;;;;;;;5012764;28;20083;-53
2023/04/23 03:00:50;;;;;;;61.88;41.42;;;;;;;;;;5012593;28;20053;-50
2023/04/23 03:03:16;;;;;;;66.43;41.65;;;;;;;;;;5012328;28;20038;-48
2023/04/23 03:05:42;;;;;;;61.95;41.42;;;;;;;;;;5012623;28;20022;-52
2023/04/23 03:08:08;;;;;;;67.20;41.17;;;;;;;;;;5012653;28;20022;-54
2023/04/23 03:10:34;;;;;;;66.38;40.60;;;;;;;;;;5012485;28;20034;-52
2023/04/23 03:13:00;;;;;;;67.10;43.08;;;;;;;;;;5012387;28;20040;-55
2023/04/23 03:15:26;;;;;;;66.78;39.28;;;;;;;;;;5012281;28;20026;-52
2023/04/23 03:17:52;;;;;;;61.63;40.08;;;;;;;;;;5012315;28;20054;-50
2023/04/23 03:20:19;;;;;;;63.50;38.70;;;;;;;;;;4994769;28;20034;-52
2023/04/23 03:22:45;;;;;;;69.45;42.10;;;;;;;;;;5012004;28;20060;-51
2023/04/23 03:25:11;;;;;;;64.80;39.90;;;;;;;;;;4994575;28;20064;-53
2023/04/23 03:27:41;;;;;;;63.28;41.65;;;;;;;;;;4994875;28;20482;-49
2023/04/23 03:30:08;;;;;;;65.32;42.35;;;;;;;;;;5012266;28;20049;-49
2023/04/23 03:32:34;;;;;;;62.58;39.20;;;;;;;;;;5012319;28;20088;-48
2023/04/23 03:35:00;;;;;;;66.68;40.17;;;;;;;;;;5012780;28;20030;-48
2023/04/23 03:37:27;;;;;;;66.10;41.85;;;;;;;;;;5012681;28;20066;-46
2023/04/23 03:39:53;;;;;;;64.10;39.28;;;;;;;;;;5012701;28;20033;-49
2023/04/23 03:42:19;;;;;;;62.53;39.65;;;;;;;;;;5011844;28;20085;-49
2023/04/23 03:44:45;;;;;;;66.85;42.38;;;;;;;;;;5012462;28;20036;-45
2023/04/23 03:47:11;;;;;;;71.90;42.47;;;;;;;;;;5012111;28;20108;-48
2023/04/23 03:49:37;;;;;;;66.70;41.63;;;;;;;;;;5011904;28;20026;-48
2023/04/23 03:52:03;;;;;;;64.57;41.75;;;;;;;;;;5011999;28;20045;-48
2023/04/23 03:54:29;;;;;;;65.30;42.15;;;;;;;;;;4994336;28;20429;-48
2023/04/23 03:56:56;;;;;;;66.82;42.55;;;;;;;;;;4994543;28;20029;-49
2023/04/23 03:59:22;;;;;;;72.15;42.83;;;;;;;;;;5011849;28;20180;-51
2023/04/23 04:01:48;;;;;;;67.82;43.60;;;;;;;;;;5011962;28;20022;-51
2023/04/23 04:04:14;;;;;;;76.22;42.00;;;;;;;;;;5011772;28;20026;-55
2023/04/23 04:06:41;;;;;;;67.75;42.22;;;;;;;;;;5011975;28;20049;-50
2023/04/23 04:09:08;;;;;;;67.88;43.25;;;;;;;;;;4994386;28;20061;-52
2023/04/23 04:11:34;;;;;;;66.90;41.05;;;;;;;;;;4994181;28;20030;-48
2023/04/23 04:14:00;;;;;;;66.97;42.55;;;;;;;;;;5011801;28;20026;-51
2023/04/23 04:16:26;;;;;;;73.05;42.30;;;;;;;;;;4994345;28;20025;-50
2023/04/23 04:18:52;;;;;;;78.15;45.08;;;;;;;;;;5011943;28;20049;-52
2023/04/23 04:21:18;;;;;;;73.60;44.92;;;;;;;;;;5012450;28;20033;-50
2023/04/23 04:23:44;;;;;;;71.47;42.50;;;;;;;;;;5011707;28;20060;-48
2023/04/23 04:26:11;;;;;;;69.38;44.05;;;;;;;;;;5011882;28;20106;-50
2023/04/23 04:28:38;;;;;;;70.05;42.00;;;;;;;;;;5011983;28;20040;-53
2023/04/23 04:31:05;;;;;;;64.85;40.65;;;;;;;;;;5011759;28;20437;-52
2023/04/23 04:33:32;;;;;;;68.32;41.20;;;;;;;;;;5011474;28;20104;-52
2023/04/23 04:35:59;;;;;;;61.83;41.83;;;;;;;;;;5011751;28;20113;-50
2023/04/23 04:38:25;;;;;;;65.60;42.97;;;;;;;;;;4994069;28;20033;-48
2023/04/23 04:40:51;;;;;;;69.13;44.33;;;;;;;;;;5011751;28;20034;-49
2023/04/23 04:43:17;;;;;;;65.35;42.45;;;;;;;;;;5011317;28;20472;-53
2023/04/23 04:45:43;;;;;;;74.30;43.45;;;;;;;;;;5011530;28;20164;-49
2023/04/23 04:48:09;;;;;;;66.93;42.15;;;;;;;;;;5011425;28;20022;-53
2023/04/23 04:50:35;;;;;;;65.97;43.55;;;;;;;;;;5011356;28;20026;-50
2023/04/23 04:53:02;;;;;;;70.07;41.85;;;;;;;;;;5011193;28;20029;-50
2023/04/23 04:55:28;;;;;;;68.35;41.83;;;;;;;;;;5011396;28;20022;-53
2023/04/23 04:57:54;;;;;;;65.75;42.75;;;;;;;;;;5011401;28;20026;-53
2023/04/23 05:00:22;;;;;;;64.70;42.35;;;;;;;;;;5014366;28;20482;-53
2023/04/23 05:02:49;;;;;;;67.70;41.58;;;;;;;;;;4997286;28;20037;-50
2023/04/23 05:05:15;;;;;;;68.38;42.42;;;;;;;;;;5014719;28;20021;-50
2023/04/23 05:07:41;;;;;;;63.88;40.13;;;;;;;;;;5015062;28;20550;-49
2023/04/23 05:10:07;;;;;;;66.85;42.20;;;;;;;;;;5014784;28;20109;-54
2023/04/23 05:12:33;;;;;;;62.80;41.20;;;;;;;;;;5014580;28;20125;-52
2023/04/23 05:14:59;;;;;;;63.88;43.60;;;;;;;;;;5011567;28;20101;-49
2023/04/23 05:20:05;;;;;;;70.50;43.83;;;;;;;;;;5032424;28;20049;-53
2023/04/23 05:22:31;;;;;;;67.53;41.15;;;;;;;;;;5033765;28;20091;-54
2023/04/23 05:24:57;;;;;;;66.40;42.53;;;;;;;;;;5033604;28;20104;-51
2023/04/23 05:27:23;;;;;;;70.00;43.20;;;;;;;;;;5016161;28;20067;-52
2023/04/23 05:29:49;;;;;;;76.70;42.97;;;;;;;;;;5034029;28;20531;-54
2023/04/23 05:32:15;;;;;;;69.03;43.60;;;;;;;;;;5034071;28;20067;-50
2023/04/23 05:34:41;;;;;;;69.75;42.70;;;;;;;;;;5033465;28;20401;-51
2023/04/23 05:37:08;;;;;;;74.75;43.63;;;;;;;;;;5033776;28;20025;-52
2023/04/23 05:39:34;;;;;;;76.93;44.47;;;;;;;;;;5033631;28;20532;-53
2023/04/23 05:42:01;;;;;;;65.68;43.58;;;;;;;;;;5033598;28;20030;-57
2023/04/23 05:44:27;;;;;;;71.93;43.20;;;;;;;;;;5033291;28;20029;-55
2023/04/23 05:46:53;;;;;;;67.90;43.65;;;;;;;;;;5033582;28;20412;-53
2023/04/23 05:49:19;;;;;;;73.35;42.25;;;;;;;;;;5033420;28;20025;-57
2023/04/23 05:51:45;;;;;;;68.57;43.17;;;;;;;;;;5033431;28;20018;-59
2023/04/23 05:54:11;;;;;;;67.60;43.78;;;;;;;;;;5033224;28;20021;-55
2023/04/23 05:56:36;;;;;;;65.97;42.80;;;;;;;;;;5033279;28;20033;-55
2023/04/23 05:59:02;;;;;;;67.53;41.92;;;;;;;;;;5033164;28;20035;-59
2023/04/23 06:01:28;;;;;;;64.82;43.40;;;;;;;;;;5033382;28;20024;-57
2023/04/23 06:03:54;;;;;;;66.05;42.35;;;;;;;;;;5015240;28;20617;-56
2023/04/23 06:06:20;;;;;;;66.75;41.50;;;;;;;;;;5015537;28;20037;-58
2023/04/23 06:08:46;;;;;;;62.13;40.97;;;;;;;;;;5015140;28;20022;-54
2023/04/23 06:11:12;;;;;;;60.15;40.05;;;;;;;;;;5031745;28;20497;-51
2023/04/23 06:13:39;;;;;;;56.95;38.72;;;;;;;;;;5032517;28;20034;-54
2023/04/23 06:16:08;;;;;;;59.10;40.78;;;;;;;;;;5032892;28;20026;-58
2023/04/23 06:18:36;;;;;;;53.00;36.25;;;;;;;;;;5032779;28;20041;-51
2023/04/23 06:21:03;;;;;;;56.47;39.67;;;;;;;;;;5032933;28;20496;-54
2023/04/23 06:23:30;;;;;;;52.20;38.28;;;;;;;;;;5014794;28;20362;-54
2023/04/23 06:25:56;;;;;;;51.28;37.53;;;;;;;;;;5032682;28;20021;-56
2023/04/23 06:28:22;;;;;;;54.50;37.72;;;;;;;;;;5014841;28;20033;-58
2023/04/23 06:30:47;;;;;;;48.35;35.85;;;;;;;;;;5032772;28;20680;-56
2023/04/23 06:33:14;;;;;;;45.83;33.85;;;;;;;;;;5032254;28;20112;-56
2023/04/23 06:35:40;;;;;;;43.45;31.45;;;;;;;;;;5032682;28;20033;-58
2023/04/23 06:38:06;;;;;;;46.53;33.03;;;;;;;;;;5032807;28;20048;-57
2023/04/23 06:40:33;;;;;;;43.67;31.73;;;;;;;;;;5014629;28;20116;-55
2023/04/23 06:43:03;;;;;;;41.15;30.05;;;;;;;;;;5024013;28;20021;-56
2023/04/23 06:45:30;;;;;;;37.47;28.80;;;;;;;;;;5030978;28;20033;-58
2023/04/23 06:47:56;;;;;;;37.28;26.98;;;;;;;;;;5031738;28;20021;-55
2023/04/23 06:50:22;;;;;;;39.20;27.48;;;;;;;;;;5032146;28;20024;-54
2023/04/23 06:52:48;;;;;;;37.80;27.58;;;;;;;;;;5032190;28;20029;-51
2023/04/23 06:55:14;;;;;;;36.70;25.98;;;;;;;;;;5030726;28;20063;-53
2023/04/23 06:57:40;;;;;;;32.78;24.42;;;;;;;;;;5032036;28;20092;-64
2023/04/23 07:00:08;;;;;;;31.55;23.40;;;;;;;;;;5023637;28;20617;-63
2023/04/23 07:02:34;;;;;;;33.50;23.98;;;;;;;;;;5031016;28;20125;-65
2023/04/23 07:05:00;;;;;;;33.35;23.98;;;;;;;;;;5032002;28;20064;-63
2023/04/23 07:07:26;;;;;;;28.95;21.88;;;;;;;;;;5031880;28;20057;-63
2023/04/23 07:09:52;;;;;;;30.55;22.52;;;;;;;;;;5031899;28;20025;-63
2023/04/23 07:12:18;;;;;;;27.30;19.60;;;;;;;;;;5032365;28;20493;-69
2023/04/23 07:14:44;;;;;;;29.50;22.30;;;;;;;;;;5030376;28;20049;-65
2023/04/23 07:17:10;;;;;;;26.02;19.67;;;;;;;;;;5031751;28;20021;-64
2023/04/23 07:19:36;;;;;;;25.60;18.65;;;;;;;;;;5031710;28;20029;-64
2023/04/23 07:22:02;;;;;;;27.83;19.65;;;;;;;;;;5013687;28;20036;-64
2023/04/23 07:24:29;;;;;;;25.48;19.05;;;;;;;;;;5013644;28;20033;-62
2023/04/23 07:26:55;;;;;;;25.83;18.98;;;;;;;;;;5031398;28;20407;-62
2023/04/23 07:29:21;;;;;;;25.77;18.70;;;;;;;;;;5031852;28;20045;-64
2023/04/23 07:31:47;;;;;;;26.40;18.25;;;;;;;;;;5014272;28;20478;-62
2023/04/23 07:34:13;;;;;;;27.27;19.05;;;;;;;;;;5031635;28;20083;-61
2023/04/23 07:36:39;;;;;;;24.95;16.55;;;;;;;;;;5014351;28;20029;-66
2023/04/23 07:39:05;;;;;;;25.92;17.38;;;;;;;;;;5032126;28;20088;-65
2023/04/23 07:41:32;;;;;;;26.00;18.38;;;;;;;;;;5032279;28;20061;-65
2023/04/23 07:43:58;;;;;;;25.40;18.27;;;;;;;;;;5036234;28;20037;-60
2023/04/23 07:46:24;;;;;;;23.80;16.88;;;;;;;;;;5040532;28;20394;-61
2023/04/23 07:48:51;;;;;;;22.65;16.88;;;;;;;;;;5021518;28;20021;-64
2023/04/23 07:51:17;;;;;;;24.33;17.70;;;;;;;;;;5041126;28;20034;-61
2023/04/23 07:53:45;;;;;;;25.38;18.27;;;;;;;;;;5038654;28;20018;-64
2023/04/23 07:56:11;;;;;;;24.33;17.40;;;;;;;;;;5016567;28;20076;-54
2023/04/23 07:58:38;;;;;;;24.33;16.10;;;;;;;;;;5030712;28;20029;-62
2023/04/23 08:01:04;;;;;;;22.85;16.80;;;;;;;;;;5012527;28;20064;-58
2023/04/23 08:03:30;;;;;;;27.58;17.80;;;;;;;;;;5012991;28;20112;-61
2023/04/23 08:05:56;;;;;;;24.25;17.38;;;;;;;;;;5031352;28;20022;-62
2023/04/23 08:08:22;;;;;;;23.95;17.15;;;;;;;;;;5031125;28;20032;-64
2023/04/23 08:10:48;;;;;;;26.60;18.58;;;;;;;;;;5031254;28;20034;-61
2023/04/23 08:13:14;;;;;;;25.02;17.50;;;;;;;;;;5030906;28;20025;-64
2023/04/23 08:15:40;;;;;;;23.80;16.20;;;;;;;;;;5030946;28;20025;-64
2023/04/23 08:18:06;;;;;;;25.65;18.45;;;;;;;;;;5030851;28;20025;-64
2023/04/23 08:20:32;;;;;;;26.13;18.38;;;;;;;;;;5030882;28;20033;-64
2023/04/23 08:22:58;;;;;;;25.80;18.17;;;;;;;;;;5030874;28;20026;-64
2023/04/23 08:25:24;;;;;;;23.98;17.25;;;;;;;;;;5013230;28;20067;-63
2023/04/23 08:27:51;;;;;;;23.38;17.15;;;;;;;;;;5031206;28;20025;-63
2023/04/23 08:30:17;;;;;;;23.05;16.80;;;;;;;;;;5031037;28;20024;-64
2023/04/23 08:32:43;;;;;;;23.27;17.15;;;;;;;;;;5013191;28;20029;-62
2023/04/23 08:35:09;;;;;;;22.08;15.65;;;;;;;;;;5016212;28;20029;-64
2023/04/23 08:37:37;;;;;;;23.52;16.30;;;;;;;;;;5034626;28;20104;-64
2023/04/23 08:40:03;;;;;;;21.88;15.32;;;;;;;;;;5035238;28;20040;-64
2023/04/23 08:42:38;;;;;;;22.35;15.80;;;;;;;;;;5036960;28;20065;-62
2023/04/23 08:45:05;;;;;;;22.23;16.30;;;;;;;;;;5037332;28;20018;-61
2023/04/23 08:47:32;;;;;;;24.15;16.17;;;;;;;;;;5035140;28;20095;-60
2023/04/23 08:49:58;;;;;;;22.73;16.13;;;;;;;;;;5016928;28;20018;-61
2023/04/23 08:52:25;;;;;;;23.40;15.32;;;;;;;;;;5016853;28;20445;-61
2023/04/23 08:54:59;;;;;;;21.63;15.43;;;;;;;;;;5034651;28;20022;-63
2023/04/23 08:57:25;;;;;;;28.98;16.70;;;;;;;;;;5014165;28;20148;-62
2023/04/23 08:59:51;;;;;;;20.10;14.50;;;;;;;;;;5032859;28;20480;-61
2023/04/23 09:02:18;;;;;;;21.55;14.38;;;;;;;;;;5015692;28;20695;-61
2023/04/23 09:04:47;;;;;;;20.60;14.40;;;;;;;;;;5033038;28;20041;-62
2023/04/23 09:07:14;;;;;;;22.10;14.27;;;;;;;;;;5032850;28;20080;-62
2023/04/23 09:09:40;;;;;;;21.23;14.32;;;;;;;;;;5032516;28;20025;-63
2023/04/23 09:12:07;;;;;;;21.52;14.27;;;;;;;;;;5033812;28;20025;-61
2023/04/23 09:14:33;;;;;;;22.20;16.10;;;;;;;;;;5033821;28;20030;-62
2023/04/23 09:17:00;;;;;;;20.45;13.48;;;;;;;;;;5033832;28;20039;-62
2023/04/23 09:19:26;;;;;;;22.30;14.77;;;;;;;;;;5016451;28;20367;-61
2023/04/23 09:21:53;;;;;;;20.88;14.25;;;;;;;;;;5016404;28;20510;-61
2023/04/23 09:24:21;;;;;;;20.77;13.63;;;;;;;;;;5016031;28;20029;-63
2023/04/23 09:26:48;;;;;;;19.95;13.40;;;;;;;;;;5034299;28;20091;-64
2023/04/23 09:29:22;;;;;;;17.98;12.73;;;;;;;;;;5033800;28;20109;-63
2023/04/23 09:31:52;;;;;;;19.27;13.05;;;;;;;;;;5016318;28;20021;-64
2023/04/23 09:34:19;;;;;;;19.48;12.52;;;;;;;;;;5033622;28;20037;-64
2023/04/23 09:36:45;;;;;;;18.33;12.05;;;;;;;;;;5033814;28;20528;-64
2023/04/23 09:39:15;;;;;;;18.75;12.23;;;;;;;;;;5033934;28;20460;-64
2023/04/23 09:41:41;;;;;;;19.60;12.55;;;;;;;;;;5015786;28;20473;-63
2023/04/23 09:44:07;;;;;;;23.08;12.15;;;;;;;;;;5015447;28;20037;-64
2023/04/23 09:46:41;;;;;;;18.40;12.23;;;;;;;;;;5015492;28;20018;-68
2023/04/23 09:49:09;;;;;;;18.48;12.15;;;;;;;;;;5015827;28;20056;-65
2023/04/23 09:51:39;;;;;;;19.30;12.15;;;;;;;;;;5033605;28;20144;-62
2023/04/23 09:54:10;;;;;;;18.70;12.02;;;;;;;;;;5033158;28;20032;-63
2023/04/23 09:56:36;;;;;;;18.77;12.18;;;;;;;;;;5033213;28;20026;-64
2023/04/23 09:59:02;;;;;;;19.17;11.68;;;;;;;;;;5033266;28;20143;-64
2023/04/23 10:01:29;;;;;;;18.63;12.38;;;;;;;;;;5015522;28;20523;-62
2023/04/23 10:03:58;;;;;;;17.45;11.63;;;;;;;;;;5033027;28;20121;-64
2023/04/23 10:06:28;;;;;;;19.23;10.95;;;;;;;;;;5033040;28;20022;-62
2023/04/23 10:08:55;;;;;;;18.95;11.75;;;;;;;;;;5015115;28;20030;-64
2023/04/23 10:11:22;;;;;;;19.20;11.40;;;;;;;;;;5029442;28;20026;-62
2023/04/23 10:13:49;;;;;;;18.38;11.65;;;;;;;;;;5013540;28;20037;-66
2023/04/23 10:16:16;;;;;;;17.40;10.98;;;;;;;;;;5018480;28;20028;-66
2023/04/23 10:18:42;;;;;;;18.30;11.02;;;;;;;;;;5032277;28;20057;-64
2023/04/23 10:21:08;;;;;;;17.23;10.73;;;;;;;;;;5023161;28;20126;-66
2023/04/23 10:23:35;;;;;;;18.08;11.00;;;;;;;;;;5025738;28;20029;-66
2023/04/23 10:26:02;;;;;;;16.85;10.20;;;;;;;;;;5031097;28;20037;-65
2023/04/23 10:28:30;;;;;;;20.13;10.38;;;;;;;;;;5032509;28;20029;-65
2023/04/23 10:30:56;;;;;;;17.20;10.27;;;;;;;;;;5026141;28;20017;-65
2023/04/23 10:33:24;;;;;;;18.83;10.18;;;;;;;;;;4682477;28;10000372;-65
2023/04/23 10:35:50;;;;;;;18.20;10.48;;;;;;;;;;5029719;28;20436;-65
2023/04/23 10:38:17;;;;;;;17.98;10.13;;;;;;;;;;5020305;28;20033;-65
2023/04/23 10:40:45;;;;;;;17.77;10.05;;;;;;;;;;5029773;28;20033;-64
2023/04/23 10:43:11;;;;;;;17.35;10.15;;;;;;;;;;5029175;28;20563;-64
2023/04/23 10:45:37;;;;;;;19.10;10.75;;;;;;;;;;5011328;28;20025;-65
2023/04/23 10:48:03;;;;;;;18.00;10.93;;;;;;;;;;5011724;28;20071;-65
2023/04/23 10:50:30;;;;;;;18.35;10.75;;;;;;;;;;5011636;28;20037;-65
2023/04/23 10:52:57;;;;;;;18.48;10.05;;;;;;;;;;5011485;28;20040;-66
2023/04/23 10:55:25;;;;;;;16.77;10.48;;;;;;;;;;5028943;28;20022;-65
2023/04/23 10:57:57;;;;;;;16.45;10.02;;;;;;;;;;5010631;28;20057;-66
2023/04/23 11:00:23;;;;;;;17.55;9.68;;;;;;;;;;5011392;28;20037;-66
2023/04/23 11:02:51;;;;;;;18.17;10.45;;;;;;;;;;5029005;28;20079;-65
2023/04/23 11:05:17;;;;;;;15.77;9.68;;;;;;;;;;5011030;28;20026;-66
2023/04/23 11:08:01;;;;;;;17.17;9.85;;;;;;;;;;5028682;28;20029;-65
2023/04/23 11:10:27;;;;;;;19.27;9.93;;;;;;;;;;5030168;28;20022;-65
2023/04/23 11:12:55;;;;;;;19.88;10.73;;;;;;;;;;5030924;28;20091;-65
2023/04/23 11:15:21;;;;;;;16.38;9.60;;;;;;;;;;5013602;28;20029;-65
2023/04/23 11:20:18;;;;;;;16.27;9.70;;;;;;;;;;5046646;22;20589;-64
2023/04/23 11:22:44;;;;;;;16.45;10.05;;;;;;;;;;5031689;28;20040;-64
2023/04/23 11:25:11;;;;;;;16.67;9.93;;;;;;;;;;5031462;28;20021;-62
2023/04/23 11:27:41;;;;;;;17.83;9.70;;;;;;;;;;5030233;28;20022;-64
2023/04/23 11:30:18;;;;;;;19.02;10.05;;;;;;;;;;5031533;28;20398;-63
2023/04/23 11:32:45;;;;;;;18.08;10.00;;;;;;;;;;5013742;28;20026;-64
2023/04/23 11:35:13;;;;;;;17.65;9.80;;;;;;;;;;5031233;28;20083;-64
2023/04/23 11:37:42;;;;;;;;;;;;;;;;;;5032008;28;20021;-64
2023/04/23 11:40:09;;;;;;;16.55;10.25;;;;;;;;;;5031421;28;19912;-65
2023/04/23 11:42:53;;;;;;;16.38;9.77;;;;;;;;;;5031416;28;20478;-65
2023/04/23 11:45:21;;;;;;;15.00;9.77;;;;;;;;;;5031284;28;20029;-65
2023/04/23 11:47:49;;;;;;;18.60;10.73;;;;;;;;;;4667474;28;10000420;-63
2023/04/23 11:50:34;;;;;;;15.50;10.25;;;;;;;;;;5028723;28;20895;-65
2023/04/23 11:53:08;;;;;;;18.75;10.70;;;;;;;;;;5028033;28;20415;-64
2023/04/23 11:55:34;;;;;;;17.52;10.38;;;;;;;;;;5028116;28;20060;-64
2023/04/23 11:58:00;;;;;;;18.15;10.38;;;;;;;;;;5028023;28;20524;-65
2023/04/23 12:00:26;;;;;;;15.82;10.48;;;;;;;;;;5010628;28;20416;-64
2023/04/23 12:02:57;;;;;;;16.02;10.75;;;;;;;;;;5010252;28;20533;-66
2023/04/23 12:05:22;;;;;;;16.08;10.48;;;;;;;;;;5028047;28;20027;-64
2023/04/23 12:07:52;;;;;;;16.15;10.10;;;;;;;;;;5029208;28;20084;-65
2023/04/23 12:10:19;;;;;;;15.02;9.82;;;;;;;;;;5032662;28;20075;-66
2023/04/23 12:12:48;;;;;;;16.65;10.30;;;;;;;;;;5032404;28;20120;-66
2023/04/23 12:15:14;;;;;;;17.55;9.90;;;;;;;;;;5031807;28;20080;-66
2023/04/23 12:17:40;;;;;;;15.88;9.48;;;;;;;;;;5013160;28;20033;-65
2023/04/23 12:20:11;;;;;;;17.35;10.10;;;;;;;;;;5022418;28;20030;-65
2023/04/23 12:22:37;;;;;;;16.02;9.82;;;;;;;;;;5032085;28;20087;-66
2023/04/23 12:25:08;;;;;;;16.25;9.55;;;;;;;;;;5031645;28;20017;-65
2023/04/23 12:27:39;;;;;;;15.93;9.40;;;;;;;;;;5031719;28;20018;-66
2023/04/23 12:30:06;;;;;;;17.23;9.75;;;;;;;;;;5031992;28;20022;-66
2023/04/23 12:32:33;;;;;;;17.13;9.30;;;;;;;;;;5032380;28;20480;-66
2023/04/23 12:34:59;;;;;;;19.13;9.20;;;;;;;;;;5014772;28;20021;-66
2023/04/23 12:37:26;;;;;;;16.40;9.90;;;;;;;;;;5034681;28;20022;-65
2023/04/23 12:39:54;;;;;;;15.43;9.30;;;;;;;;;;5016878;28;20113;-65
2023/04/23 12:42:20;;;;;;;16.45;9.20;;;;;;;;;;5034765;28;20088;-66
2023/04/23 12:44:46;;;;;;;15.55;9.57;;;;;;;;;;5034338;28;20025;-64
2023/04/23 12:47:16;;;;;;;16.30;9.05;;;;;;;;;;5016727;28;20029;-65
2023/04/23 12:49:42;;;;;;;16.67;9.50;;;;;;;;;;5034704;28;20095;-66
2023/04/23 12:52:08;;;;;;;16.75;9.80;;;;;;;;;;4685299;28;10000212;-65
2023/04/23 12:54:38;;;;;;;15.18;9.18;;;;;;;;;;5031210;28;20022;-65
2023/04/23 12:57:09;;;;;;;16.13;9.05;;;;;;;;;;5031499;28;20030;-66
2023/04/23 12:59:36;;;;;;;16.38;9.40;;;;;;;;;;5031361;28;20030;-66
2023/04/23 13:02:03;;;;;;;15.88;9.60;;;;;;;;;;5031386;28;20033;-63
2023/04/23 13:04:29;;;;;;;15.13;9.32;;;;;;;;;;5031025;28;20021;-64
2023/04/23 13:06:55;;;;;;;15.07;9.20;;;;;;;;;;5031092;28;20108;-64
2023/04/23 13:09:23;;;;;;;16.25;9.75;;;;;;;;;;5031216;28;20029;-65
2023/04/23 13:11:49;;;;;;;15.70;9.35;;;;;;;;;;5031559;28;20101;-65
2023/04/23 13:14:16;;;;;;;16.08;9.70;;;;;;;;;;5030558;28;20051;-64
2023/04/23 13:16:42;;;;;;;15.77;8.80;;;;;;;;;;5012739;28;20076;-65
2023/04/23 13:19:08;;;;;;;15.10;8.50;;;;;;;;;;5017283;28;20124;-64
2023/04/23 13:21:34;;;;;;;14.73;8.70;;;;;;;;;;5030497;28;20521;-64
2023/04/23 13:24:00;;;;;;;14.43;8.93;;;;;;;;;;5030287;28;20116;-65
2023/04/23 13:26:31;;;;;;;15.25;8.80;;;;;;;;;;5030351;28;20347;-65
2023/04/23 13:28:57;;;;;;;15.15;9.15;;;;;;;;;;5027893;28;20462;-65
2023/04/23 13:31:23;;;;;;;14.30;8.63;;;;;;;;;;5012474;28;20557;-64
2023/04/23 13:33:49;;;;;;;14.88;8.60;;;;;;;;;;5030207;28;20037;-65
2023/04/23 13:36:15;;;;;;;14.43;8.60;;;;;;;;;;5030884;28;20032;-65
2023/04/23 13:38:41;;;;;;;15.98;8.25;;;;;;;;;;5030909;28;20029;-65
2023/04/23 13:41:07;;;;;;;14.25;8.73;;;;;;;;;;5030748;28;20496;-66
2023/04/23 13:43:33;;;;;;;14.27;8.45;;;;;;;;;;5030411;28;20026;-65
2023/04/23 13:46:00;;;;;;;14.02;8.35;;;;;;;;;;5030578;28;20318;-64
2023/04/23 13:48:30;;;;;;;14.10;8.23;;;;;;;;;;5029707;28;20497;-66
2023/04/23 13:51:00;;;;;;;14.98;9.23;;;;;;;;;;5030116;28;20024;-65
2023/04/23 13:53:26;;;;;;;15.95;9.40;;;;;;;;;;5012336;28;20022;-65
2023/04/23 13:55:54;;;;;;;15.15;9.15;;;;;;;;;;5012626;28;20033;-65
2023/04/23 13:58:20;;;;;;;14.65;9.07;;;;;;;;;;5030352;28;20049;-66
2023/04/23 14:00:46;;;;;;;14.82;9.30;;;;;;;;;;5030363;28;20088;-66
2023/04/23 14:03:13;;;;;;;15.32;9.70;;;;;;;;;;5012171;28;20030;-65
2023/04/23 14:05:39;;;;;;;16.65;10.20;;;;;;;;;;5030366;28;20036;-65
2023/04/23 14:08:05;;;;;;;14.68;9.55;;;;;;;;;;5012255;28;20028;-64
2023/04/23 14:10:31;;;;;;;16.02;9.60;;;;;;;;;;5030264;28;20018;-63
2023/04/23 14:12:57;;;;;;;15.10;9.35;;;;;;;;;;5030070;28;20048;-63
2023/04/23 14:15:23;;;;;;;15.63;9.48;;;;;;;;;;5029834;28;20053;-64
2023/04/23 14:17:49;;;;;;;15.02;9.65;;;;;;;;;;5029879;28;20478;-64
2023/04/23 14:20:15;;;;;;;14.50;9.20;;;;;;;;;;5029866;28;20056;-65